OISY 
Yasouj Airport
Iran 
ICAOStatus
OISYOperational
LatitudeLongitude
30° 42' 1" N51° 32' 42" E
30.70050051.545101
Local Time (DST+5)UTC (GMT+4)
04-16-2014 02:47 pm04-16-2014 10:17
Sunrise-SunsetLocalUTC
Begin Civil Twilight06:08 am01:38
Sunrise06:33 am02:03
Sunset07:33 pm15:03
End Civil Twilight07:58 pm15:28

Current Weather

METARObservedFlight Conditions

OISY 161000Z 25008KT 9999 FEW040 23/04 Q1024

Wed, Apr 16, 2014 @ 10:00 UTC(Z)

(17 Minutes ago)

VFR

(Visual Flight Rules)

WindVisibilityCloudsConditions
250° at 8 knots (15 kph)
10 km or more
  • Few at 4,000' AGL
  • No significant weather
TemperaturesReadingsPrecipitation
Current Temp23°C (73°F)
Dewpoint4°C (39°F)
Humidity29%
Altimeter30.24"Hg
Sea Level Pressure1024mb
Field Elevation5941.6'
None Recorded

Additional weather within a 185.2km radius of OISY

Location METAR
OISS

163.5km S (142°)

17 minutes ago
OIAG

178.5km W (272°)

17 minutes ago
VFR VFR    MVFR MVFR    IFR IFR    LIFR LIFR    Unknown Unknown

Previous 24 hour Weather Graphs

  Loading...

CheckWX.com is intended as a tool to help pilots better visualize weather data.   It is not intended as a substitute for an official weather briefing obtained from a Flight Service Station.
CheckWX.com does not meet the FAA requirements for an official pre-flight weather briefing.   Therefore, it's important that pilots still call and obtain an official FSS pre-flight weather briefing.